sensor_id;sensor_type;location;lat;lon;timestamp;pressure;altitude;pressure_sealevel;temperature;humidity
8047;BME280;74083;42.516;23.358;2024-02-26T00:01:58;87995.06;;;8.67;66.86
8047;BME280;74083;42.516;23.358;2024-02-26T00:04:43;87996.09;;;8.64;66.71
8047;BME280;74083;42.516;23.358;2024-02-26T00:07:29;87986.06;;;8.64;67.04
8047;BME280;74083;42.516;23.358;2024-02-26T00:10:15;87990.28;;;8.64;67.16
8047;BME280;74083;42.516;23.358;2024-02-26T00:13:01;87986.06;;;8.64;67.24
8047;BME280;74083;42.516;23.358;2024-02-26T00:15:47;87981.03;;;8.64;67.09
8047;BME280;74083;42.516;23.358;2024-02-26T00:18:33;87976.13;;;8.63;67.47
8047;BME280;74083;42.516;23.358;2024-02-26T00:21:19;87972.81;;;8.62;67.49
8047;BME280;74083;42.516;23.358;2024-02-26T00:24:05;87970.41;;;8.61;67.73
8047;BME280;74083;42.516;23.358;2024-02-26T00:26:51;87966.19;;;8.61;67.73
8047;BME280;74083;42.516;23.358;2024-02-26T00:29:38;87974.63;;;8.60;67.56
8047;BME280;74083;42.516;23.358;2024-02-26T00:32:26;87964.59;;;8.60;67.64
8047;BME280;74083;42.516;23.358;2024-02-26T00:35:13;87956.16;;;8.61;68.13
8047;BME280;74083;42.516;23.358;2024-02-26T00:38:00;87960.50;;;8.59;67.98
8047;BME280;74083;42.516;23.358;2024-02-26T00:40:47;87963.81;;;8.60;67.86
8047;BME280;74083;42.516;23.358;2024-02-26T00:43:33;87963.00;;;8.59;67.90
8047;BME280;74083;42.516;23.358;2024-02-26T00:46:19;87966.31;;;8.60;67.78
8047;BME280;74083;42.516;23.358;2024-02-26T00:49:04;87962.88;;;8.61;68.04
8047;BME280;74083;42.516;23.358;2024-02-26T00:51:51;87960.28;;;8.62;67.98
8047;BME280;74083;42.516;23.358;2024-02-26T00:54:37;87950.53;;;8.58;68.11
8047;BME280;74083;42.516;23.358;2024-02-26T00:57:22;87952.25;;;8.57;67.97
8047;BME280;74083;42.516;23.358;2024-02-26T01:00:08;87950.53;;;8.58;68.04
8047;BME280;74083;42.516;23.358;2024-02-26T01:02:54;87945.53;;;8.58;68.15
8047;BME280;74083;42.516;23.358;2024-02-26T01:05:40;87938.94;;;8.57;68.09
8047;BME280;74083;42.516;23.358;2024-02-26T01:08:28;87946.47;;;8.57;68.11
8047;BME280;74083;42.516;23.358;2024-02-26T01:11:13;87933.91;;;8.57;68.11
8047;BME280;74083;42.516;23.358;2024-02-26T01:13:59;87936.28;;;8.58;67.89
8047;BME280;74083;42.516;23.358;2024-02-26T01:16:44;87935.47;;;8.58;67.87
8047;BME280;74083;42.516;23.358;2024-02-26T01:19:30;87937.19;;;8.57;67.56
8047;BME280;74083;42.516;23.358;2024-02-26T01:22:15;87931.25;;;8.58;67.42
8047;BME280;74083;42.516;23.358;2024-02-26T01:25:03;87929.56;;;8.59;67.52
8047;BME280;74083;42.516;23.358;2024-02-26T01:27:49;87930.38;;;8.59;67.15
8047;BME280;74083;42.516;23.358;2024-02-26T01:30:34;87927.84;;;8.59;67.20
8047;BME280;74083;42.516;23.358;2024-02-26T01:33:19;87926.25;;;8.58;67.24
8047;BME280;74083;42.516;23.358;2024-02-26T01:36:05;87925.66;;;8.55;66.90
8047;BME280;74083;42.516;23.358;2024-02-26T01:38:51;87923.72;;;8.58;67.06
8047;BME280;74083;42.516;23.358;2024-02-26T01:41:38;87922.13;;;8.57;66.90
8047;BME280;74083;42.516;23.358;2024-02-26T01:44:26;87921.22;;;8.58;66.76
8047;BME280;74083;42.516;23.358;2024-02-26T01:47:13;87917.81;;;8.59;66.83
8047;BME280;74083;42.516;23.358;2024-02-26T01:49:59;87914.50;;;8.59;66.55
8047;BME280;74083;42.516;23.358;2024-02-26T01:52:45;87915.41;;;8.58;66.72
8047;BME280;74083;42.516;23.358;2024-02-26T01:55:31;87910.28;;;8.59;66.79
8047;BME280;74083;42.516;23.358;2024-02-26T01:58:19;87907.75;;;8.59;66.90
8047;BME280;74083;42.516;23.358;2024-02-26T02:01:06;87905.25;;;8.59;66.93
8047;BME280;74083;42.516;23.358;2024-02-26T02:03:51;87904.31;;;8.60;66.61
8047;BME280;74083;42.516;23.358;2024-02-26T02:06:38;87904.31;;;8.60;66.88
8047;BME280;74083;42.516;23.358;2024-02-26T02:09:23;87906.84;;;8.60;66.62
8047;BME280;74083;42.516;23.358;2024-02-26T02:12:10;87908.66;;;8.58;66.53
8047;BME280;74083;42.516;23.358;2024-02-26T02:14:57;87904.56;;;8.57;66.56
8047;BME280;74083;42.516;23.358;2024-02-26T02:17:43;87897.94;;;8.56;66.68
8047;BME280;74083;42.516;23.358;2024-02-26T02:20:33;87892.81;;;8.58;66.59
8047;BME280;74083;42.516;23.358;2024-02-26T02:23:19;87909.56;;;8.57;66.50
8047;BME280;74083;42.516;23.358;2024-02-26T02:26:04;87908.78;;;8.57;66.43
8047;BME280;74083;42.516;23.358;2024-02-26T02:28:50;87900.56;;;8.55;66.81
8047;BME280;74083;42.516;23.358;2024-02-26T02:31:36;87900.47;;;8.56;66.61
8047;BME280;74083;42.516;23.358;2024-02-26T02:34:22;87913.81;;;8.57;66.69
8047;BME280;74083;42.516;23.358;2024-02-26T02:37:09;87912.88;;;8.58;66.92
8047;BME280;74083;42.516;23.358;2024-02-26T02:39:55;87912.88;;;8.58;66.53
8047;BME280;74083;42.516;23.358;2024-02-26T02:42:42;87913.69;;;8.58;66.83
8047;BME280;74083;42.516;23.358;2024-02-26T02:45:27;87914.59;;;8.57;66.76
8047;BME280;74083;42.516;23.358;2024-02-26T02:48:14;87914.50;;;8.59;66.81
8047;BME280;74083;42.516;23.358;2024-02-26T02:51:00;87913.69;;;8.58;66.93
8047;BME280;74083;42.516;23.358;2024-02-26T02:53:47;87916.19;;;8.58;66.88
8047;BME280;74083;42.516;23.358;2024-02-26T02:56:33;87921.22;;;8.58;67.01
8047;BME280;74083;42.516;23.358;2024-02-26T02:59:19;87929.56;;;8.59;66.75
8047;BME280;74083;42.516;23.358;2024-02-26T03:02:05;87926.25;;;8.58;67.19
8047;BME280;74083;42.516;23.358;2024-02-26T03:04:51;87932.06;;;8.59;66.85
8047;BME280;74083;42.516;23.358;2024-02-26T03:07:37;87927.84;;;8.59;67.18
8047;BME280;74083;42.516;23.358;2024-02-26T03:10:24;87928.75;;;8.58;67.13
8047;BME280;74083;42.516;23.358;2024-02-26T03:13:10;87929.91;;;8.54;66.95
8047;BME280;74083;42.516;23.358;2024-02-26T03:15:56;87932.06;;;8.59;66.91
8047;BME280;74083;42.516;23.358;2024-02-26T03:18:41;87925.44;;;8.58;66.99
8047;BME280;74083;42.516;23.358;2024-02-26T03:21:27;87923.88;;;8.57;66.60
8047;BME280;74083;42.516;23.358;2024-02-26T03:24:13;87925.44;;;8.58;66.85
8047;BME280;74083;42.516;23.358;2024-02-26T03:27:00;87921.44;;;8.55;66.66
8047;BME280;74083;42.516;23.358;2024-02-26T03:29:46;87919.88;;;8.54;66.88
8047;BME280;74083;42.516;23.358;2024-02-26T03:32:32;87922.38;;;8.54;66.96
8047;BME280;74083;42.516;23.358;2024-02-26T03:35:17;87923.28;;;8.53;67.28
8047;BME280;74083;42.516;23.358;2024-02-26T03:38:03;87909.94;;;8.53;67.01
8047;BME280;74083;42.516;23.358;2024-02-26T03:40:49;87913.25;;;8.53;67.08
8047;BME280;74083;42.516;23.358;2024-02-26T03:43:36;87910.72;;;8.53;66.88
8047;BME280;74083;42.516;23.358;2024-02-26T03:46:22;87912.44;;;8.53;66.92
8047;BME280;74083;42.516;23.358;2024-02-26T03:49:07;87914.03;;;8.54;67.16
8047;BME280;74083;42.516;23.358;2024-02-26T03:51:53;87905.72;;;8.53;67.14
8047;BME280;74083;42.516;23.358;2024-02-26T03:54:38;87895.78;;;8.52;67.04
8047;BME280;74083;42.516;23.358;2024-02-26T03:57:24;87905.81;;;8.52;67.14
8047;BME280;74083;42.516;23.358;2024-02-26T04:00:13;87910.72;;;8.53;66.96
8047;BME280;74083;42.516;23.358;2024-02-26T04:02:58;87904.91;;;8.53;66.98
8047;BME280;74083;42.516;23.358;2024-02-26T04:05:44;87904.00;;;8.54;66.76
8047;BME280;74083;42.516;23.358;2024-02-26T04:08:29;87909.94;;;8.53;66.96
8047;BME280;74083;42.516;23.358;2024-02-26T04:11:15;87910.84;;;8.52;67.01
8047;BME280;74083;42.516;23.358;2024-02-26T04:14:02;87908.31;;;8.52;66.74
8047;BME280;74083;42.516;23.358;2024-02-26T04:16:51;87899.22;;;8.51;66.81
8047;BME280;74083;42.516;23.358;2024-02-26T04:19:38;87895.00;;;8.51;66.62
8047;BME280;74083;42.516;23.358;2024-02-26T04:22:24;87902.63;;;8.50;66.89
8047;BME280;74083;42.516;23.358;2024-02-26T04:25:09;87896.56;;;8.52;66.94
8047;BME280;74083;42.516;23.358;2024-02-26T04:27:55;87896.56;;;8.52;67.04
8047;BME280;74083;42.516;23.358;2024-02-26T04:30:42;87899.09;;;8.52;66.78
8047;BME280;74083;42.516;23.358;2024-02-26T04:33:29;87889.03;;;8.52;66.92
8047;BME280;74083;42.516;23.358;2024-02-26T04:36:16;87881.50;;;8.52;66.46
8047;BME280;74083;42.516;23.358;2024-02-26T04:39:02;87886.53;;;8.52;66.57
8047;BME280;74083;42.516;23.358;2024-02-26T04:41:48;87894.06;;;8.52;66.72
8047;BME280;74083;42.516;23.358;2024-02-26T04:44:34;87890.75;;;8.52;66.75
8047;BME280;74083;42.516;23.358;2024-02-26T04:47:19;87889.97;;;8.51;66.83
8047;BME280;74083;42.516;23.358;2024-02-26T04:50:08;87895.22;;;8.48;67.03
8047;BME280;74083;42.516;23.358;2024-02-26T04:52:55;87896.78;;;8.49;66.72
8047;BME280;74083;42.516;23.358;2024-02-26T04:55:41;87903.53;;;8.49;66.79
8047;BME280;74083;42.516;23.358;2024-02-26T04:58:27;87905.25;;;8.48;66.64
8047;BME280;74083;42.516;23.358;2024-02-26T05:01:13;87912.88;;;8.47;66.82
8047;BME280;74083;42.516;23.358;2024-02-26T05:03:59;87905.50;;;8.45;66.62
8047;BME280;74083;42.516;23.358;2024-02-26T05:06:47;87903.88;;;8.44;66.80
8047;BME280;74083;42.516;23.358;2024-02-26T05:09:32;87906.25;;;8.45;67.22
8047;BME280;74083;42.516;23.358;2024-02-26T05:12:18;87907.06;;;8.46;67.04
8047;BME280;74083;42.516;23.358;2024-02-26T05:15:05;87912.88;;;8.47;67.11
8047;BME280;74083;42.516;23.358;2024-02-26T05:17:51;87909.69;;;8.44;67.06
8047;BME280;74083;42.516;23.358;2024-02-26T05:20:37;87911.41;;;8.44;66.98
8047;BME280;74083;42.516;23.358;2024-02-26T05:23:24;87920.78;;;8.42;66.87
8047;BME280;74083;42.516;23.358;2024-02-26T05:26:10;87915.75;;;8.42;67.27
8047;BME280;74083;42.516;23.358;2024-02-26T05:28:55;87931.59;;;8.42;67.29
8047;BME280;74083;42.516;23.358;2024-02-26T05:31:44;87934.00;;;8.44;67.32
8047;BME280;74083;42.516;23.358;2024-02-26T05:34:29;87933.19;;;8.43;66.84
8047;BME280;74083;42.516;23.358;2024-02-26T05:37:15;87927.38;;;8.43;67.23
8047;BME280;74083;42.516;23.358;2024-02-26T05:40:03;87937.41;;;8.43;67.39
8047;BME280;74083;42.516;23.358;2024-02-26T05:42:49;87940.84;;;8.42;67.45
8047;BME280;74083;42.516;23.358;2024-02-26T05:45:35;87939.13;;;8.42;67.07
8047;BME280;74083;42.516;23.358;2024-02-26T05:48:21;87938.34;;;8.42;67.36
8047;BME280;74083;42.516;23.358;2024-02-26T05:51:06;87944.38;;;8.39;67.40
8047;BME280;74083;42.516;23.358;2024-02-26T05:53:52;87949.41;;;8.39;67.10
8047;BME280;74083;42.516;23.358;2024-02-26T05:56:40;87948.59;;;8.39;67.24
8047;BME280;74083;42.516;23.358;2024-02-26T05:59:26;87950.31;;;8.38;67.38
8047;BME280;74083;42.516;23.358;2024-02-26T06:02:12;87952.81;;;8.38;67.26
8047;BME280;74083;42.516;23.358;2024-02-26T06:04:58;87960.56;;;8.35;67.32
8047;BME280;74083;42.516;23.358;2024-02-26T06:07:44;87959.78;;;8.35;67.52
8047;BME280;74083;42.516;23.358;2024-02-26T06:10:30;87960.56;;;8.35;67.42
8047;BME280;74083;42.516;23.358;2024-02-26T06:13:17;87967.28;;;8.35;67.29
8047;BME280;74083;42.516;23.358;2024-02-26T06:16:03;87968.91;;;8.36;67.30
8047;BME280;74083;42.516;23.358;2024-02-26T06:18:49;87966.41;;;8.36;67.59
8047;BME280;74083;42.516;23.358;2024-02-26T06:21:34;87963.97;;;8.34;67.44
8047;BME280;74083;42.516;23.358;2024-02-26T06:24:20;87964.78;;;8.35;67.42
8047;BME280;74083;42.516;23.358;2024-02-26T06:27:06;87968.91;;;8.36;67.41
8047;BME280;74083;42.516;23.358;2024-02-26T06:29:54;87957.25;;;8.35;67.25
8047;BME280;74083;42.516;23.358;2024-02-26T06:32:40;87959.78;;;8.35;67.26
8047;BME280;74083;42.516;23.358;2024-02-26T06:35:26;87959.78;;;8.35;67.75
8047;BME280;74083;42.516;23.358;2024-02-26T06:38:12;87963.88;;;8.36;67.68
8047;BME280;74083;42.516;23.358;2024-02-26T06:40:58;87963.97;;;8.34;67.32
8047;BME280;74083;42.516;23.358;2024-02-26T06:43:44;87964.78;;;8.35;67.43
8047;BME280;74083;42.516;23.358;2024-02-26T06:46:31;87968.09;;;8.35;67.67
8047;BME280;74083;42.516;23.358;2024-02-26T06:49:17;87964.91;;;8.33;67.46
8047;BME280;74083;42.516;23.358;2024-02-26T06:52:03;87963.97;;;8.34;67.58
8047;BME280;74083;42.516;23.358;2024-02-26T06:54:49;87964.78;;;8.35;67.48
8047;BME280;74083;42.516;23.358;2024-02-26T06:57:35;87964.78;;;8.35;67.90
8047;BME280;74083;42.516;23.358;2024-02-26T07:00:21;87969.94;;;8.33;67.93
8047;BME280;74083;42.516;23.358;2024-02-26T07:03:08;87971.63;;;8.33;67.69
8047;BME280;74083;42.516;23.358;2024-02-26T07:05:54;87981.69;;;8.33;67.99
8047;BME280;74083;42.516;23.358;2024-02-26T07:08:41;87984.19;;;8.33;67.83
8047;BME280;74083;42.516;23.358;2024-02-26T07:11:26;87993.28;;;8.34;67.93
8047;BME280;74083;42.516;23.358;2024-02-26T07:14:12;87992.53;;;8.33;67.72
8047;BME280;74083;42.516;23.358;2024-02-26T07:16:59;87997.53;;;8.33;68.04
8047;BME280;74083;42.516;23.358;2024-02-26T07:19:46;87987.50;;;8.33;67.59
8047;BME280;74083;42.516;23.358;2024-02-26T07:22:32;87990.00;;;8.33;67.73
8047;BME280;74083;42.516;23.358;2024-02-26T07:25:17;87992.53;;;8.33;67.99
8047;BME280;74083;42.516;23.358;2024-02-26T07:28:04;87986.69;;;8.33;67.89
8047;BME280;74083;42.516;23.358;2024-02-26T07:30:50;87995.94;;;8.32;68.05
8047;BME280;74083;42.516;23.358;2024-02-26T07:33:35;87995.94;;;8.32;68.53
8047;BME280;74083;42.516;23.358;2024-02-26T07:36:22;88000.94;;;8.32;68.45
8047;BME280;74083;42.516;23.358;2024-02-26T07:39:09;88002.56;;;8.33;68.21
8047;BME280;74083;42.516;23.358;2024-02-26T07:41:56;88003.47;;;8.32;68.28
8047;BME280;74083;42.516;23.358;2024-02-26T07:44:42;88003.34;;;8.34;67.90
8047;BME280;74083;42.516;23.358;2024-02-26T07:47:28;87996.59;;;8.34;68.07
8047;BME280;74083;42.516;23.358;2024-02-26T07:50:15;87999.13;;;8.34;67.94
8047;BME280;74083;42.516;23.358;2024-02-26T07:53:03;87999.94;;;8.35;68.22
8047;BME280;74083;42.516;23.358;2024-02-26T07:55:48;87998.31;;;8.34;68.23
8047;BME280;74083;42.516;23.358;2024-02-26T07:58:34;87994.09;;;8.34;68.30
8047;BME280;74083;42.516;23.358;2024-02-26T08:01:20;87993.28;;;8.34;68.29
8047;BME280;74083;42.516;23.358;2024-02-26T08:04:06;87992.41;;;8.35;68.27
8047;BME280;74083;42.516;23.358;2024-02-26T08:06:52;87989.09;;;8.34;68.39
8047;BME280;74083;42.516;23.358;2024-02-26T08:09:39;87989.88;;;8.35;68.07
8047;BME280;74083;42.516;23.358;2024-02-26T08:12:25;87987.38;;;8.35;68.13
8047;BME280;74083;42.516;23.358;2024-02-26T08:15:11;87992.41;;;8.35;68.41
8047;BME280;74083;42.516;23.358;2024-02-26T08:17:57;87984.19;;;8.33;68.70
8047;BME280;74083;42.516;23.358;2024-02-26T08:20:44;87992.53;;;8.33;68.89
8047;BME280;74083;42.516;23.358;2024-02-26T08:23:30;87995.03;;;8.33;68.38
8047;BME280;74083;42.516;23.358;2024-02-26T08:26:17;87991.72;;;8.33;68.22
8047;BME280;74083;42.516;23.358;2024-02-26T08:29:05;87984.06;;;8.34;68.50
8047;BME280;74083;42.516;23.358;2024-02-26T08:31:52;87984.88;;;8.35;68.09
8047;BME280;74083;42.516;23.358;2024-02-26T08:34:38;87984.06;;;8.34;68.35
8047;BME280;74083;42.516;23.358;2024-02-26T08:37:24;87990.78;;;8.34;68.19
8047;BME280;74083;42.516;23.358;2024-02-26T08:40:11;87989.88;;;8.35;68.00
8047;BME280;74083;42.516;23.358;2024-02-26T08:42:59;87995.72;;;8.35;68.25
8047;BME280;74083;42.516;23.358;2024-02-26T08:45:44;87998.22;;;8.35;68.49
8047;BME280;74083;42.516;23.358;2024-02-26T08:48:30;87991.59;;;8.34;68.32
8047;BME280;74083;42.516;23.358;2024-02-26T08:51:16;87999.13;;;8.34;68.33
8047;BME280;74083;42.516;23.358;2024-02-26T08:54:02;87990.78;;;8.34;68.75
8047;BME280;74083;42.516;23.358;2024-02-26T08:56:48;87991.72;;;8.33;68.39
8047;BME280;74083;42.516;23.358;2024-02-26T08:59:35;87986.69;;;8.33;68.60
8047;BME280;74083;42.516;23.358;2024-02-26T09:02:21;87981.69;;;8.33;68.52
8047;BME280;74083;42.516;23.358;2024-02-26T09:05:07;88000.81;;;8.34;68.97
8047;BME280;74083;42.516;23.358;2024-02-26T09:07:53;87986.69;;;8.33;69.17
8047;BME280;74083;42.516;23.358;2024-02-26T09:10:39;87983.25;;;8.34;68.75
8047;BME280;74083;42.516;23.358;2024-02-26T09:13:25;87981.47;;;8.36;68.94
8047;BME280;74083;42.516;23.358;2024-02-26T09:16:12;87984.88;;;8.35;68.68
8047;BME280;74083;42.516;23.358;2024-02-26T09:18:58;87987.38;;;8.35;68.95
8047;BME280;74083;42.516;23.358;2024-02-26T09:21:45;87982.25;;;8.36;68.66
8047;BME280;74083;42.516;23.358;2024-02-26T09:24:31;87988.97;;;8.36;69.01
8047;BME280;74083;42.516;23.358;2024-02-26T09:27:18;87974.81;;;8.35;68.93
8047;BME280;74083;42.516;23.358;2024-02-26T09:30:05;87974.81;;;8.35;68.99
8047;BME280;74083;42.516;23.358;2024-02-26T09:32:52;87983.25;;;8.34;69.42
8047;BME280;74083;42.516;23.358;2024-02-26T09:35:38;87986.47;;;8.36;69.57
8047;BME280;74083;42.516;23.358;2024-02-26T09:38:23;87982.94;;;8.38;69.34
8047;BME280;74083;42.516;23.358;2024-02-26T09:41:14;87979.97;;;8.33;69.44
8047;BME280;74083;42.516;23.358;2024-02-26T09:44:02;87988.28;;;8.34;70.12
8047;BME280;74083;42.516;23.358;2024-02-26T09:46:52;87988.50;;;8.31;70.87
8047;BME280;74083;42.516;23.358;2024-02-26T09:49:39;87991.00;;;8.31;70.98
8047;BME280;74083;42.516;23.358;2024-02-26T09:52:25;87988.84;;;8.37;70.40
8047;BME280;74083;42.516;23.358;2024-02-26T09:55:14;87987.59;;;8.32;70.59
8047;BME280;74083;42.516;23.358;2024-02-26T09:58:00;87992.41;;;8.35;70.38
8047;BME280;74083;42.516;23.358;2024-02-26T10:00:51;87991.72;;;8.33;70.18
8047;BME280;74083;42.516;23.358;2024-02-26T10:03:39;87986.09;;;8.29;70.75
8047;BME280;74083;42.516;23.358;2024-02-26T10:06:29;88003.34;;;8.34;70.67
8047;BME280;74083;42.516;23.358;2024-02-26T10:09:16;87980.66;;;8.35;70.84
8047;BME280;74083;42.516;23.358;2024-02-26T10:12:04;87990.78;;;8.34;71.11
8047;BME280;74083;42.516;23.358;2024-02-26T10:14:50;87987.97;;;8.38;70.23
8047;BME280;74083;42.516;23.358;2024-02-26T10:17:36;87981.47;;;8.36;70.82
8047;BME280;74083;42.516;23.358;2024-02-26T10:20:23;87984.66;;;8.38;70.59
8047;BME280;74083;42.516;23.358;2024-02-26T10:23:12;87977.34;;;8.35;71.12
8047;BME280;74083;42.516;23.358;2024-02-26T10:25:58;87979.25;;;8.31;71.05
8047;BME280;74083;42.516;23.358;2024-02-26T10:28:45;87963.81;;;8.25;71.17
8047;BME280;74083;42.516;23.358;2024-02-26T10:31:31;87973.66;;;8.28;70.85
8047;BME280;74083;42.516;23.358;2024-02-26T10:34:17;87968.28;;;8.21;71.24
8047;BME280;74083;42.516;23.358;2024-02-26T10:37:04;87955.50;;;8.24;70.95
8047;BME280;74083;42.516;23.358;2024-02-26T10:39:52;87963.41;;;8.31;70.82
8047;BME280;74083;42.516;23.358;2024-02-26T10:42:38;87957.00;;;8.27;71.29
8047;BME280;74083;42.516;23.358;2024-02-26T10:45:24;87957.47;;;8.32;70.97
8047;BME280;74083;42.516;23.358;2024-02-26T10:48:10;87959.50;;;8.27;70.75
8047;BME280;74083;42.516;23.358;2024-02-26T10:50:57;87952.19;;;8.24;70.65
8047;BME280;74083;42.516;23.358;2024-02-26T10:53:44;87945.09;;;8.18;71.22
8047;BME280;74083;42.516;23.358;2024-02-26T10:56:34;87946.22;;;8.14;71.75
8047;BME280;74083;42.516;23.358;2024-02-26T10:59:22;87942.16;;;8.13;71.52
8047;BME280;74083;42.516;23.358;2024-02-26T11:02:08;87948.75;;;8.14;71.82
8047;BME280;74083;42.516;23.358;2024-02-26T11:04:56;87954.25;;;8.19;72.02
8047;BME280;74083;42.516;23.358;2024-02-26T11:07:43;87950.38;;;8.26;71.71
8047;BME280;74083;42.516;23.358;2024-02-26T11:10:31;87950.84;;;8.31;71.23
8047;BME280;74083;42.516;23.358;2024-02-26T11:13:19;87944.44;;;8.16;72.04
8047;BME280;74083;42.516;23.358;2024-02-26T11:16:07;87948.50;;;8.06;72.61
8047;BME280;74083;42.516;23.358;2024-02-26T11:18:53;87944.97;;;8.19;72.04
8047;BME280;74083;42.516;23.358;2024-02-26T11:21:41;87945.44;;;8.13;71.55
8047;BME280;74083;42.516;23.358;2024-02-26T11:24:27;87939.97;;;8.19;71.60
8047;BME280;74083;42.516;23.358;2024-02-26T11:27:16;87939.34;;;8.28;71.20
8047;BME280;74083;42.516;23.358;2024-02-26T11:30:09;87937.13;;;8.24;71.30
8047;BME280;74083;42.516;23.358;2024-02-26T11:32:56;87937.31;;;8.33;71.11
8047;BME280;74083;42.516;23.358;2024-02-26T11:35:42;87939.81;;;8.44;70.43
8047;BME280;74083;42.516;23.358;2024-02-26T11:38:27;87934.00;;;8.44;70.42
8047;BME280;74083;42.516;23.358;2024-02-26T11:41:13;87940.50;;;8.47;70.08
8047;BME280;74083;42.516;23.358;2024-02-26T11:44:00;87941.31;;;8.47;69.89
8047;BME280;74083;42.516;23.358;2024-02-26T11:46:47;87937.53;;;8.30;71.25
8047;BME280;74083;42.516;23.358;2024-02-26T11:49:33;87940.59;;;8.34;70.88
8047;BME280;74083;42.516;23.358;2024-02-26T11:52:20;87936.22;;;8.25;71.32
8047;BME280;74083;42.516;23.358;2024-02-26T11:55:06;87935.13;;;8.40;70.50
8047;BME280;74083;42.516;23.358;2024-02-26T11:57:53;87928.75;;;8.36;71.11
8047;BME280;74083;42.516;23.358;2024-02-26T12:00:40;87929.38;;;8.16;72.20
8047;BME280;74083;42.516;23.358;2024-02-26T12:03:28;87930.50;;;8.12;72.46
8047;BME280;74083;42.516;23.358;2024-02-26T12:06:15;87936.41;;;8.11;72.23
8047;BME280;74083;42.516;23.358;2024-02-26T12:09:01;87941.22;;;8.14;72.37
8047;BME280;74083;42.516;23.358;2024-02-26T12:11:49;87936.53;;;8.09;72.58
8047;BME280;74083;42.516;23.358;2024-02-26T12:14:38;87938.91;;;8.11;72.73
8047;BME280;74083;42.516;23.358;2024-02-26T12:17:26;87933.69;;;8.14;73.30
8047;BME280;74083;42.516;23.358;2024-02-26T12:20:14;87931.75;;;8.17;73.40
8047;BME280;74083;42.516;23.358;2024-02-26T12:23:02;87928.69;;;8.25;73.41
8047;BME280;74083;42.516;23.358;2024-02-26T12:25:49;87933.28;;;8.31;72.49
8047;BME280;74083;42.516;23.358;2024-02-26T12:28:34;87929.88;;;8.32;72.05
8047;BME280;74083;42.516;23.358;2024-02-26T12:31:20;87938.09;;;8.34;71.75
8047;BME280;74083;42.516;23.358;2024-02-26T12:34:07;87940.38;;;8.37;71.75
8047;BME280;74083;42.516;23.358;2024-02-26T12:36:56;87939.69;;;8.46;71.36
8047;BME280;74083;42.516;23.358;2024-02-26T12:39:42;87936.38;;;8.45;71.96
8047;BME280;74083;42.516;23.358;2024-02-26T12:42:30;87942.19;;;8.35;71.95
8047;BME280;74083;42.516;23.358;2024-02-26T12:45:17;87943.09;;;8.34;71.89
8047;BME280;74083;42.516;23.358;2024-02-26T12:48:05;87941.75;;;8.30;71.69
8047;BME280;74083;42.516;23.358;2024-02-26T12:50:51;87934.91;;;8.32;71.21
8047;BME280;74083;42.516;23.358;2024-02-26T12:53:38;87938.88;;;8.34;71.35
8047;BME280;74083;42.516;23.358;2024-02-26T12:56:26;87946.75;;;8.30;71.49
8047;BME280;74083;42.516;23.358;2024-02-26T12:59:13;87939.47;;;8.38;71.04
8047;BME280;74083;42.516;23.358;2024-02-26T13:02:00;87939.91;;;8.32;71.26
8047;BME280;74083;42.516;23.358;2024-02-26T13:04:47;87932.84;;;8.37;70.72
8047;BME280;74083;42.516;23.358;2024-02-26T13:07:33;87934.66;;;8.35;71.00
8047;BME280;74083;42.516;23.358;2024-02-26T13:10:20;87944.25;;;8.41;70.59
8047;BME280;74083;42.516;23.358;2024-02-26T13:13:07;87931.84;;;8.39;70.47
8047;BME280;74083;42.516;23.358;2024-02-26T13:16:01;87936.06;;;8.39;70.55
8047;BME280;74083;42.516;23.358;2024-02-26T13:18:48;87930.09;;;8.40;70.18
8047;BME280;74083;42.516;23.358;2024-02-26T13:21:34;87935.59;;;8.45;70.13
8047;BME280;74083;42.516;23.358;2024-02-26T13:24:21;87937.19;;;8.46;69.81
8047;BME280;74083;42.516;23.358;2024-02-26T13:27:10;87939.38;;;8.51;69.68
8047;BME280;74083;42.516;23.358;2024-02-26T13:30:04;87940.63;;;8.56;69.50
8047;BME280;74083;42.516;23.358;2024-02-26T13:32:50;87937.91;;;8.59;69.42
8047;BME280;74083;42.516;23.358;2024-02-26T13:35:37;87942.56;;;8.53;69.63
8047;BME280;74083;42.516;23.358;2024-02-26T13:38:24;87949.88;;;8.56;69.16
8047;BME280;74083;42.516;23.358;2024-02-26T13:41:11;87952.38;;;8.56;69.26
8047;BME280;74083;42.516;23.358;2024-02-26T13:43:58;87956.47;;;8.45;69.79
8047;BME280;74083;42.516;23.358;2024-02-26T13:46:45;87957.94;;;8.37;69.60
8047;BME280;74083;42.516;23.358;2024-02-26T13:49:32;87952.91;;;8.37;69.73
8047;BME280;74083;42.516;23.358;2024-02-26T13:52:18;87958.66;;;8.39;69.71
8047;BME280;74083;42.516;23.358;2024-02-26T13:55:06;87949.16;;;8.31;69.82
8047;BME280;74083;42.516;23.358;2024-02-26T13:57:53;87945.97;;;8.29;70.03
8047;BME280;74083;42.516;23.358;2024-02-26T14:00:41;87960.22;;;8.29;69.77
8047;BME280;74083;42.516;23.358;2024-02-26T14:03:27;87960.22;;;8.29;69.96
8047;BME280;74083;42.516;23.358;2024-02-26T14:06:13;87955.88;;;8.31;69.78
8047;BME280;74083;42.516;23.358;2024-02-26T14:08:58;87956.59;;;8.33;69.75
8047;BME280;74083;42.516;23.358;2024-02-26T14:11:45;87959.31;;;8.30;69.71
8047;BME280;74083;42.516;23.358;2024-02-26T14:14:31;87955.38;;;8.26;70.17
8047;BME280;74083;42.516;23.358;2024-02-26T14:17:21;87958.69;;;8.26;69.77
8047;BME280;74083;42.516;23.358;2024-02-26T14:20:08;87960.41;;;8.26;70.07
8047;BME280;74083;42.516;23.358;2024-02-26T14:22:54;87956.28;;;8.25;69.95
8047;BME280;74083;42.516;23.358;2024-02-26T14:25:40;87960.34;;;8.27;69.88
8047;BME280;74083;42.516;23.358;2024-02-26T14:28:26;87960.78;;;8.32;69.54
8047;BME280;74083;42.516;23.358;2024-02-26T14:31:16;87950.63;;;8.34;69.50
8047;BME280;74083;42.516;23.358;2024-02-26T14:34:04;87958.16;;;8.34;69.41
8047;BME280;74083;42.516;23.358;2024-02-26T14:36:50;87958.38;;;8.31;69.31
8047;BME280;74083;42.516;23.358;2024-02-26T14:39:37;87962.97;;;8.37;68.99
8047;BME280;74083;42.516;23.358;2024-02-26T14:42:24;87966.19;;;8.39;68.96
8047;BME280;74083;42.516;23.358;2024-02-26T14:45:09;87968.13;;;8.47;68.63
8047;BME280;74083;42.516;23.358;2024-02-26T14:47:55;87970.84;;;8.55;68.46
8047;BME280;74083;42.516;23.358;2024-02-26T14:50:42;87972.34;;;8.57;68.16
8047;BME280;74083;42.516;23.358;2024-02-26T14:53:29;87974.84;;;8.57;68.48